Time;durP1;ratioP1;P1;durP2;ratioP2;P2;SDS_P1;SDS_P2;PMS_P1;PMS_P2;Temp;Humidity;BMP_temperature;BMP_pressure;BME280_temperature;BME280_humidity;BME280_pressure;Samples;Min_cycle;Max_cycle;Signal;HPM_P1;HPM_P2
2021/05/26 00:01:24;;;;;;;0.77;0.70;;;;;;;;;;5017474;28;20018;-48
2021/05/26 00:03:51;;;;;;;1.92;0.70;;;;;;;;;;5017153;28;20117;-47
2021/05/26 00:06:17;;;;;;;1.25;0.73;;;;;;;;;;5014454;28;20040;-49
2021/05/26 00:08:43;;;;;;;1.20;0.80;;;;;;;;;;5019471;28;20057;-48
2021/05/26 00:11:11;;;;;;;2.72;1.00;;;;;;;;;;5011637;28;20106;-48
2021/05/26 00:13:37;;;;;;;6.50;1.00;;;;;;;;;;5011893;28;20057;-48
2021/05/26 00:16:05;;;;;;;3.88;0.80;;;;;;;;;;5022334;28;20105;-48
2021/05/26 00:18:32;;;;;;;1.67;0.75;;;;;;;;;;5019789;28;20030;-48
2021/05/26 00:20:58;;;;;;;1.90;0.88;;;;;;;;;;5020348;28;20034;-50
2021/05/26 00:23:24;;;;;;;2.83;0.80;;;;;;;;;;5020186;28;20040;-49
2021/05/26 00:25:50;;;;;;;2.30;0.65;;;;;;;;;;5011466;28;20493;-50
2021/05/26 00:28:16;;;;;;;1.98;1.00;;;;;;;;;;5017663;28;20041;-48
2021/05/26 00:30:46;;;;;;;7.47;1.00;;;;;;;;;;5019224;28;20053;-48
2021/05/26 00:33:13;;;;;;;1.83;0.57;;;;;;;;;;5011805;28;20456;-47
2021/05/26 00:35:39;;;;;;;1.88;0.80;;;;;;;;;;5011511;28;20029;-47
2021/05/26 00:38:05;;;;;;;2.03;0.68;;;;;;;;;;5018694;28;20105;-48
2021/05/26 00:40:31;;;;;;;2.05;0.80;;;;;;;;;;5030515;28;20428;-49
2021/05/26 00:42:57;;;;;;;1.20;0.82;;;;;;;;;;5016973;28;20130;-49
2021/05/26 00:45:23;;;;;;;0.70;0.70;;;;;;;;;;5017375;28;20030;-48
2021/05/26 00:47:50;;;;;;;2.83;0.82;;;;;;;;;;5019886;28;20028;-48
2021/05/26 00:50:17;;;;;;;1.60;0.80;;;;;;;;;;5029141;28;20673;-48
2021/05/26 00:52:43;;;;;;;1.70;0.77;;;;;;;;;;5022852;28;20532;-48
2021/05/26 00:55:12;;;;;;;3.28;0.80;;;;;;;;;;5012606;28;20112;-50
2021/05/26 00:57:37;;;;;;;1.65;0.77;;;;;;;;;;5020707;28;20128;-48
2021/05/26 01:00:05;;;;;;;1.45;0.88;;;;;;;;;;5031238;28;20029;-49
2021/05/26 01:02:31;;;;;;;1.10;0.60;;;;;;;;;;5011449;28;20108;-47
2021/05/26 01:04:57;;;;;;;1.95;0.80;;;;;;;;;;5016360;28;20165;-48
2021/05/26 01:07:23;;;;;;;1.70;0.77;;;;;;;;;;5021116;28;20466;-47
2021/05/26 01:09:49;;;;;;;6.03;0.73;;;;;;;;;;5017187;28;20022;-49
2021/05/26 01:12:15;;;;;;;2.67;0.82;;;;;;;;;;5015049;28;20377;-54
2021/05/26 01:14:41;;;;;;;1.40;0.80;;;;;;;;;;5017543;28;20030;-47
2021/05/26 01:17:07;;;;;;;3.67;0.90;;;;;;;;;;5021140;28;20063;-48
2021/05/26 01:19:33;;;;;;;3.60;0.95;;;;;;;;;;5032899;28;20033;-48
2021/05/26 01:21:59;;;;;;;4.72;1.00;;;;;;;;;;5020858;28;20042;-49
2021/05/26 01:24:25;;;;;;;4.10;0.68;;;;;;;;;;5016315;28;20040;-49
2021/05/26 01:26:52;;;;;;;3.85;1.00;;;;;;;;;;5020348;28;20028;-47
2021/05/26 01:29:18;;;;;;;1.85;0.90;;;;;;;;;;5033239;28;20520;-51
2021/05/26 01:31:44;;;;;;;3.13;0.80;;;;;;;;;;5014489;28;20029;-47
2021/05/26 01:34:10;;;;;;;3.35;0.90;;;;;;;;;;5018760;28;20022;-48
2021/05/26 01:36:36;;;;;;;3.47;0.82;;;;;;;;;;5024466;28;20132;-47
2021/05/26 01:39:04;;;;;;;2.70;1.13;;;;;;;;;;5017179;28;20041;-48
2021/05/26 01:41:30;;;;;;;2.03;0.75;;;;;;;;;;5016517;28;20105;-47
2021/05/26 01:43:57;;;;;;;2.13;0.90;;;;;;;;;;5019041;28;20026;-47
2021/05/26 01:46:23;;;;;;;1.42;1.00;;;;;;;;;;5023896;28;20029;-47
2021/05/26 01:48:50;;;;;;;2.42;0.85;;;;;;;;;;5015853;28;20060;-49
2021/05/26 01:51:16;;;;;;;0.88;0.57;;;;;;;;;;5027083;28;20181;-47
2021/05/26 01:53:42;;;;;;;1.85;1.00;;;;;;;;;;5030616;28;20361;-47
2021/05/26 01:56:15;;;;;;;3.25;0.75;;;;;;;;;;5016632;28;20034;-50
2021/05/26 01:58:41;;;;;;;2.72;0.90;;;;;;;;;;5017325;28;20034;-49
2021/05/26 02:01:07;;;;;;;1.55;0.90;;;;;;;;;;5029998;28;20678;-48
2021/05/26 02:03:33;;;;;;;1.92;0.90;;;;;;;;;;5014303;28;20033;-49
2021/05/26 02:05:59;;;;;;;2.47;1.02;;;;;;;;;;5013784;28;20814;-50
2021/05/26 02:08:25;;;;;;;1.88;0.90;;;;;;;;;;5013995;28;20057;-48
2021/05/26 02:13:36;;;;;;;1.15;0.82;;;;;;;;;;5012494;28;20092;-48
2021/05/26 02:16:02;;;;;;;1.88;0.70;;;;;;;;;;5014700;28;20026;-48
2021/05/26 02:18:28;;;;;;;1.85;0.85;;;;;;;;;;5026881;28;20065;-48
2021/05/26 02:20:54;;;;;;;1.38;0.70;;;;;;;;;;5020618;28;20021;-49
2021/05/26 02:23:20;;;;;;;0.70;0.60;;;;;;;;;;5033594;28;20056;-49
2021/05/26 02:25:46;;;;;;;1.23;0.70;;;;;;;;;;5023939;28;20037;-48
2021/05/26 02:28:12;;;;;;;2.60;0.80;;;;;;;;;;5020921;28;20454;-47
2021/05/26 02:30:38;;;;;;;2.55;0.90;;;;;;;;;;5013432;28;20061;-48
2021/05/26 02:33:04;;;;;;;1.10;0.82;;;;;;;;;;5022059;28;20029;-48
2021/05/26 02:35:31;;;;;;;2.55;1.00;;;;;;;;;;5012186;28;20109;-48
2021/05/26 02:37:57;;;;;;;1.38;0.77;;;;;;;;;;5012801;28;20104;-48
2021/05/26 02:40:23;;;;;;;6.50;0.88;;;;;;;;;;5023627;28;20032;-48
2021/05/26 02:42:49;;;;;;;2.17;0.90;;;;;;;;;;5015541;28;20049;-48
2021/05/26 02:45:15;;;;;;;2.60;0.75;;;;;;;;;;5012782;28;20466;-48
2021/05/26 02:47:41;;;;;;;1.48;0.82;;;;;;;;;;5014284;28;20033;-48
2021/05/26 02:50:07;;;;;;;4.68;1.23;;;;;;;;;;5015671;28;20030;-52
2021/05/26 02:52:33;;;;;;;3.28;0.95;;;;;;;;;;5032704;28;20151;-50
2021/05/26 02:54:59;;;;;;;2.50;1.00;;;;;;;;;;5032971;28;20033;-47
2021/05/26 02:57:25;;;;;;;3.58;0.90;;;;;;;;;;5026743;28;20434;-49
2021/05/26 02:59:51;;;;;;;3.92;0.82;;;;;;;;;;5015731;28;20026;-49
2021/05/26 03:02:17;;;;;;;2.40;0.95;;;;;;;;;;5029724;28;20025;-48
2021/05/26 03:04:43;;;;;;;2.42;0.90;;;;;;;;;;5018657;28;20112;-50
2021/05/26 03:07:09;;;;;;;1.13;0.82;;;;;;;;;;5011764;28;20121;-48
2021/05/26 03:09:35;;;;;;;0.88;0.75;;;;;;;;;;5015540;28;20035;-48
2021/05/26 03:12:01;;;;;;;2.67;1.00;;;;;;;;;;5007065;28;20068;-47
2021/05/26 03:14:27;;;;;;;2.03;0.80;;;;;;;;;;5016511;28;20033;-47
2021/05/26 03:16:53;;;;;;;3.33;1.10;;;;;;;;;;5022433;28;20026;-48
2021/05/26 03:19:19;;;;;;;3.28;1.08;;;;;;;;;;5023540;28;20017;-48
2021/05/26 03:21:45;;;;;;;5.63;1.10;;;;;;;;;;5012495;28;20033;-47
2021/05/26 03:24:12;;;;;;;4.03;1.33;;;;;;;;;;5019696;28;20440;-48
2021/05/26 03:26:38;;;;;;;1.40;0.80;;;;;;;;;;5012381;28;20128;-48
2021/05/26 03:29:04;;;;;;;2.20;1.05;;;;;;;;;;5026557;28;20465;-47
2021/05/26 03:31:31;;;;;;;5.88;1.25;;;;;;;;;;5023661;28;20036;-48
2021/05/26 03:33:58;;;;;;;1.73;0.98;;;;;;;;;;5024951;28;20065;-48
2021/05/26 03:36:24;;;;;;;1.50;0.90;;;;;;;;;;5012596;28;20148;-48
2021/05/26 03:38:50;;;;;;;2.45;1.10;;;;;;;;;;5012368;28;20057;-51
2021/05/26 03:41:16;;;;;;;4.47;1.10;;;;;;;;;;5026980;28;20025;-51
2021/05/26 03:43:42;;;;;;;0.95;0.70;;;;;;;;;;5025293;28;20037;-51
2021/05/26 03:46:08;;;;;;;1.67;0.90;;;;;;;;;;5012369;28;20079;-47
2021/05/26 03:48:34;;;;;;;1.33;0.90;;;;;;;;;;5012087;28;20025;-49
2021/05/26 03:51:00;;;;;;;1.67;1.10;;;;;;;;;;5013666;28;20104;-49
2021/05/26 03:53:26;;;;;;;1.90;0.98;;;;;;;;;;5024083;28;20447;-48
2021/05/26 03:55:52;;;;;;;2.50;0.90;;;;;;;;;;5026598;28;20032;-49
2021/05/26 03:58:18;;;;;;;1.95;1.20;;;;;;;;;;5020516;28;20044;-48
2021/05/26 04:00:44;;;;;;;3.72;1.00;;;;;;;;;;5017074;28;20461;-49
2021/05/26 04:03:10;;;;;;;3.70;0.90;;;;;;;;;;5019941;28;20038;-48
2021/05/26 04:05:36;;;;;;;3.10;1.00;;;;;;;;;;5011519;28;20033;-48
2021/05/26 04:08:02;;;;;;;1.83;1.00;;;;;;;;;;5011860;28;20458;-48
2021/05/26 04:10:28;;;;;;;3.08;1.20;;;;;;;;;;5017187;28;20022;-47
2021/05/26 04:12:54;;;;;;;1.75;0.88;;;;;;;;;;5018040;28;20037;-47
2021/05/26 04:15:20;;;;;;;2.95;0.90;;;;;;;;;;5012008;28;20036;-48
2021/05/26 04:17:46;;;;;;;2.60;1.10;;;;;;;;;;5015137;28;20217;-47
2021/05/26 04:20:12;;;;;;;3.35;0.98;;;;;;;;;;5017428;28;20025;-48
2021/05/26 04:22:38;;;;;;;5.05;1.15;;;;;;;;;;5016259;28;20113;-47
2021/05/26 04:25:07;;;;;;;3.70;1.20;;;;;;;;;;5020382;28;20029;-49
2021/05/26 04:27:34;;;;;;;2.70;1.23;;;;;;;;;;5015320;28;20168;-47
2021/05/26 04:30:01;;;;;;;2.67;1.35;;;;;;;;;;5028593;28;20046;-48
2021/05/26 04:32:27;;;;;;;1.67;1.05;;;;;;;;;;5018316;28;20051;-48
2021/05/26 04:34:53;;;;;;;2.22;1.25;;;;;;;;;;5024333;28;20037;-47
2021/05/26 04:37:19;;;;;;;2.03;1.02;;;;;;;;;;5028324;28;20025;-49
2021/05/26 04:39:45;;;;;;;4.78;2.22;;;;;;;;;;5016096;28;20038;-48
2021/05/26 04:42:11;;;;;;;4.00;1.27;;;;;;;;;;5023450;28;20087;-48
2021/05/26 04:44:37;;;;;;;2.33;1.15;;;;;;;;;;5015104;28;20030;-48
2021/05/26 04:47:04;;;;;;;3.38;1.35;;;;;;;;;;5018944;28;20133;-47
2021/05/26 04:49:30;;;;;;;2.10;1.02;;;;;;;;;;5026879;28;20461;-48
2021/05/26 04:51:57;;;;;;;1.63;1.15;;;;;;;;;;5024893;28;20105;-49
2021/05/26 04:54:23;;;;;;;5.28;1.30;;;;;;;;;;5015511;28;20025;-47
2021/05/26 04:56:49;;;;;;;1.77;1.00;;;;;;;;;;5026567;28;20388;-47
2021/05/26 04:59:15;;;;;;;1.88;1.30;;;;;;;;;;5030012;28;20030;-48
2021/05/26 05:01:41;;;;;;;1.55;1.27;;;;;;;;;;5017690;28;20037;-47
2021/05/26 05:04:07;;;;;;;2.00;1.40;;;;;;;;;;5020620;28;20033;-49
2021/05/26 05:06:33;;;;;;;4.30;1.70;;;;;;;;;;5014706;28;20025;-48
2021/05/26 05:08:59;;;;;;;3.40;1.25;;;;;;;;;;5013498;28;20043;-48
2021/05/26 05:11:25;;;;;;;4.95;1.10;;;;;;;;;;5018119;28;20442;-48
2021/05/26 05:13:51;;;;;;;2.65;1.00;;;;;;;;;;5021851;28;20109;-48
2021/05/26 05:16:17;;;;;;;1.92;1.17;;;;;;;;;;5013262;28;20022;-48
2021/05/26 05:18:43;;;;;;;3.55;0.98;;;;;;;;;;5019841;28;20223;-48
2021/05/26 05:21:09;;;;;;;3.40;1.10;;;;;;;;;;5015066;28;20448;-48
2021/05/26 05:23:35;;;;;;;1.52;1.20;;;;;;;;;;5012686;28;20492;-48
2021/05/26 05:26:01;;;;;;;2.60;0.80;;;;;;;;;;5010217;28;20026;-49
2021/05/26 05:28:27;;;;;;;4.07;1.80;;;;;;;;;;5008275;28;20486;-47
2021/05/26 05:30:53;;;;;;;4.47;1.10;;;;;;;;;;5013541;28;20046;-51
2021/05/26 05:33:19;;;;;;;2.72;1.20;;;;;;;;;;5013518;28;20044;-51
2021/05/26 05:35:45;;;;;;;2.53;1.38;;;;;;;;;;5013595;28;20050;-48
2021/05/26 05:38:11;;;;;;;3.65;1.20;;;;;;;;;;5019646;28;20025;-49
2021/05/26 05:40:37;;;;;;;3.15;1.10;;;;;;;;;;5028102;28;20030;-48
2021/05/26 05:43:04;;;;;;;1.92;1.20;;;;;;;;;;5029934;28;20458;-52
2021/05/26 05:45:29;;;;;;;1.75;1.15;;;;;;;;;;5004248;28;20042;-51
2021/05/26 05:47:55;;;;;;;2.35;1.10;;;;;;;;;;5025286;28;20041;-48
2021/05/26 05:50:21;;;;;;;5.20;1.50;;;;;;;;;;5019723;28;20076;-48
2021/05/26 05:52:48;;;;;;;4.45;1.67;;;;;;;;;;5021799;28;20040;-48
2021/05/26 05:55:17;;;;;;;2.70;1.30;;;;;;;;;;5021731;28;20029;-48
2021/05/26 05:57:43;;;;;;;4.22;1.50;;;;;;;;;;5012256;28;20370;-48
2021/05/26 06:00:10;;;;;;;3.58;1.63;;;;;;;;;;5011509;28;20030;-49
2021/05/26 06:02:36;;;;;;;3.80;1.15;;;;;;;;;;5001504;28;20144;-48
2021/05/26 06:05:02;;;;;;;3.85;1.33;;;;;;;;;;5012404;28;20030;-50
2021/05/26 06:07:28;;;;;;;2.03;1.15;;;;;;;;;;5012270;28;20489;-51
2021/05/26 06:09:54;;;;;;;2.28;1.20;;;;;;;;;;5021759;28;20026;-50
2021/05/26 06:12:21;;;;;;;2.63;1.10;;;;;;;;;;5012598;28;20105;-52
2021/05/26 06:14:47;;;;;;;4.80;1.25;;;;;;;;;;5016619;28;20458;-50
2021/05/26 06:17:13;;;;;;;6.55;1.52;;;;;;;;;;5020335;28;20037;-50
2021/05/26 06:19:39;;;;;;;5.10;1.63;;;;;;;;;;5012533;28;20026;-49
2021/05/26 06:22:05;;;;;;;8.32;1.80;;;;;;;;;;5017014;28;20034;-48
2021/05/26 06:24:31;;;;;;;3.95;1.98;;;;;;;;;;5016980;28;20022;-48
2021/05/26 06:26:57;;;;;;;2.92;1.17;;;;;;;;;;5021086;28;20057;-49
2021/05/26 06:29:23;;;;;;;3.35;1.30;;;;;;;;;;5015193;28;20061;-51
2021/05/26 06:31:49;;;;;;;6.85;1.52;;;;;;;;;;5026822;28;20029;-49
2021/05/26 06:34:15;;;;;;;4.57;1.65;;;;;;;;;;5031384;28;20041;-49
2021/05/26 06:36:41;;;;;;;2.65;1.25;;;;;;;;;;5020569;28;20461;-48
2021/05/26 06:39:07;;;;;;;4.00;1.23;;;;;;;;;;5017503;28;20022;-47
2021/05/26 06:41:33;;;;;;;4.72;1.60;;;;;;;;;;5015947;28;20393;-49
2021/05/26 06:43:59;;;;;;;3.15;1.40;;;;;;;;;;5028593;28;20033;-50
2021/05/26 06:46:25;;;;;;;4.20;1.42;;;;;;;;;;5017931;28;20114;-48
2021/05/26 06:48:51;;;;;;;3.83;1.20;;;;;;;;;;5020244;28;20036;-48
2021/05/26 06:51:17;;;;;;;4.47;1.15;;;;;;;;;;5016040;28;20026;-49
2021/05/26 06:53:43;;;;;;;3.72;1.42;;;;;;;;;;5020233;28;20120;-48
2021/05/26 06:56:09;;;;;;;3.05;1.60;;;;;;;;;;5028220;28;20144;-50
2021/05/26 06:58:35;;;;;;;4.32;1.25;;;;;;;;;;5017158;28;20107;-54
2021/05/26 07:01:01;;;;;;;3.42;1.40;;;;;;;;;;5021949;28;20064;-48
2021/05/26 07:03:27;;;;;;;2.55;1.38;;;;;;;;;;5025770;28;20049;-49
2021/05/26 07:05:53;;;;;;;3.45;1.23;;;;;;;;;;5013073;28;20022;-48
2021/05/26 07:08:19;;;;;;;3.92;1.40;;;;;;;;;;5020782;28;20432;-51
2021/05/26 07:10:45;;;;;;;4.57;1.42;;;;;;;;;;5019819;28;20033;-49
2021/05/26 07:13:11;;;;;;;5.90;1.90;;;;;;;;;;5022947;28;20084;-48
2021/05/26 07:15:37;;;;;;;5.60;1.92;;;;;;;;;;5012727;28;20025;-49
2021/05/26 07:18:04;;;;;;;4.93;1.02;;;;;;;;;;5005958;28;20026;-50
2021/05/26 07:20:30;;;;;;;4.28;1.60;;;;;;;;;;5010049;28;20041;-48
2021/05/26 07:22:56;;;;;;;5.55;1.33;;;;;;;;;;5016926;28;20036;-48
2021/05/26 07:25:22;;;;;;;2.47;1.33;;;;;;;;;;5013725;28;20034;-49
2021/05/26 07:27:49;;;;;;;6.88;1.30;;;;;;;;;;5018853;28;20044;-49
2021/05/26 07:30:15;;;;;;;3.55;1.63;;;;;;;;;;5017573;28;20045;-48
2021/05/26 07:32:41;;;;;;;4.05;1.20;;;;;;;;;;5017751;28;20034;-52
2021/05/26 07:35:07;;;;;;;4.93;1.50;;;;;;;;;;5017094;28;20013;-48
2021/05/26 07:37:33;;;;;;;2.38;1.00;;;;;;;;;;5021518;28;20022;-48
2021/05/26 07:39:59;;;;;;;3.67;1.13;;;;;;;;;;5013351;28;20084;-52
2021/05/26 07:42:25;;;;;;;5.18;1.30;;;;;;;;;;5020728;28;20029;-50
2021/05/26 07:44:51;;;;;;;6.20;1.35;;;;;;;;;;5016682;28;20108;-51
2021/05/26 07:47:17;;;;;;;7.18;1.50;;;;;;;;;;5015018;28;20030;-51
2021/05/26 07:49:43;;;;;;;2.08;1.10;;;;;;;;;;5012419;28;20441;-49
2021/05/26 07:52:12;;;;;;;3.65;1.48;;;;;;;;;;5015158;28;20030;-48
2021/05/26 07:54:40;;;;;;;4.18;1.42;;;;;;;;;;5021859;28;20461;-49
2021/05/26 07:57:06;;;;;;;5.88;1.35;;;;;;;;;;5020184;28;20026;-49
2021/05/26 07:59:32;;;;;;;3.33;1.13;;;;;;;;;;5017839;28;20034;-51
2021/05/26 08:01:58;;;;;;;3.78;1.17;;;;;;;;;;5007948;28;20021;-49
2021/05/26 08:04:24;;;;;;;5.03;1.40;;;;;;;;;;5010188;28;20130;-48
2021/05/26 08:06:50;;;;;;;2.28;1.30;;;;;;;;;;5021827;28;20022;-49
2021/05/26 08:09:16;;;;;;;2.00;1.00;;;;;;;;;;5012001;28;20057;-52
2021/05/26 08:11:42;;;;;;;4.18;1.10;;;;;;;;;;5015278;28;20029;-53
2021/05/26 08:14:08;;;;;;;2.97;1.00;;;;;;;;;;5012276;28;20046;-50
2021/05/26 08:16:34;;;;;;;2.08;0.90;;;;;;;;;;5015555;28;20861;-52
2021/05/26 08:19:00;;;;;;;1.48;0.85;;;;;;;;;;5014349;28;20080;-52
2021/05/26 08:21:26;;;;;;;1.63;0.70;;;;;;;;;;5014791;28;20371;-48
2021/05/26 08:23:52;;;;;;;1.83;0.82;;;;;;;;;;5013211;28;20060;-49
2021/05/26 08:26:21;;;;;;;4.72;1.40;;;;;;;;;;5014202;28;20049;-49
2021/05/26 08:28:48;;;;;;;5.13;0.95;;;;;;;;;;5017854;28;20040;-51
2021/05/26 08:31:14;;;;;;;2.85;1.20;;;;;;;;;;5012410;28;20379;-48
2021/05/26 08:33:41;;;;;;;1.80;0.80;;;;;;;;;;5014554;28;20460;-49
2021/05/26 08:36:07;;;;;;;2.42;0.80;;;;;;;;;;5023572;28;20035;-49
2021/05/26 08:38:33;;;;;;;1.60;0.90;;;;;;;;;;5015492;28;20025;-50
2021/05/26 08:41:03;;;;;;;3.05;1.00;;;;;;;;;;5020809;28;20096;-48
2021/05/26 08:43:29;;;;;;;1.67;0.90;;;;;;;;;;5016127;28;20226;-50
2021/05/26 08:45:55;;;;;;;3.78;1.25;;;;;;;;;;5025440;28;20509;-49
2021/05/26 08:48:22;;;;;;;5.63;0.90;;;;;;;;;;5014706;28;20026;-50
2021/05/26 08:50:50;;;;;;;3.22;0.90;;;;;;;;;;5022900;28;20080;-52
2021/05/26 08:53:16;;;;;;;2.65;1.00;;;;;;;;;;5014303;28;20038;-49
2021/05/26 08:55:42;;;;;;;2.83;1.10;;;;;;;;;;5023065;28;20033;-48
2021/05/26 08:58:08;;;;;;;3.33;1.10;;;;;;;;;;5012133;28;20520;-48
2021/05/26 09:00:34;;;;;;;4.00;1.48;;;;;;;;;;5023389;28;20029;-51
2021/05/26 09:03:00;;;;;;;5.18;1.15;;;;;;;;;;5020524;28;20069;-49
2021/05/26 09:05:28;;;;;;;1.92;0.73;;;;;;;;;;5014342;28;20472;-48
2021/05/26 09:07:55;;;;;;;3.15;1.00;;;;;;;;;;5021729;28;20026;-50
2021/05/26 09:10:21;;;;;;;4.72;0.95;;;;;;;;;;5022036;28;20025;-48
2021/05/26 09:12:48;;;;;;;3.88;0.90;;;;;;;;;;5032741;28;20033;-47
2021/05/26 09:15:18;;;;;;;2.63;0.77;;;;;;;;;;5027376;28;20029;-50
2021/05/26 09:17:48;;;;;;;1.65;0.90;;;;;;;;;;5025046;28;20465;-51
2021/05/26 09:20:17;;;;;;;5.88;1.17;;;;;;;;;;5019181;28;20037;-54
2021/05/26 09:23:01;;;;;;;2.22;0.90;;;;;;;;;;5018302;28;20076;-49
2021/05/26 09:25:28;;;;;;;1.83;0.70;;;;;;;;;;5021065;28;20064;-47
2021/05/26 09:28:13;;;;;;;4.13;0.90;;;;;;;;;;5020792;28;20037;-49
2021/05/26 09:30:39;;;;;;;2.33;0.90;;;;;;;;;;5020554;28;20492;-49
2021/05/26 09:33:21;;;;;;;3.13;1.00;;;;;;;;;;5024680;28;20034;-50
2021/05/26 09:35:47;;;;;;;5.70;1.20;;;;;;;;;;5015744;28;20506;-49
2021/05/26 09:38:13;;;;;;;1.75;0.80;;;;;;;;;;5026131;28;20026;-50
2021/05/26 09:40:39;;;;;;;2.97;0.90;;;;;;;;;;5025895;28;20084;-49
2021/05/26 09:43:05;;;;;;;4.55;1.08;;;;;;;;;;5020960;28;20033;-48
2021/05/26 09:45:31;;;;;;;2.88;0.90;;;;;;;;;;5018376;28;20082;-51
2021/05/26 09:47:58;;;;;;;4.55;0.90;;;;;;;;;;5021229;28;20070;-48
2021/05/26 09:50:37;;;;;;;3.17;0.82;;;;;;;;;;5023221;28;20089;-53
2021/05/26 09:53:15;;;;;;;5.47;0.88;;;;;;;;;;5020327;28;20042;-50
2021/05/26 09:55:41;;;;;;;3.47;0.80;;;;;;;;;;5018487;28;20026;-48
2021/05/26 09:58:09;;;;;;;2.45;1.00;;;;;;;;;;5029330;28;20032;-50
2021/05/26 10:00:35;;;;;;;3.38;1.05;;;;;;;;;;5023625;28;20488;-47
2021/05/26 10:03:01;;;;;;;2.42;0.82;;;;;;;;;;5014677;28;20037;-50
2021/05/26 10:05:28;;;;;;;4.03;1.17;;;;;;;;;;5019644;28;20056;-48
2021/05/26 10:07:56;;;;;;;2.58;0.70;;;;;;;;;;5021583;28;20057;-48
2021/05/26 10:10:23;;;;;;;2.25;0.93;;;;;;;;;;5023049;28;20033;-48
2021/05/26 10:12:52;;;;;;;4.85;1.33;;;;;;;;;;5013211;28;20026;-50
2021/05/26 10:15:19;;;;;;;5.07;0.95;;;;;;;;;;5015770;28;20100;-51
2021/05/26 10:17:50;;;;;;;1.50;0.90;;;;;;;;;;5013616;28;20026;-50
2021/05/26 10:20:17;;;;;;;6.28;1.00;;;;;;;;;;5033381;28;20025;-48
2021/05/26 10:22:43;;;;;;;1.75;0.80;;;;;;;;;;5013878;28;20053;-52
2021/05/26 10:25:13;;;;;;;4.38;1.10;;;;;;;;;;5022569;28;20037;-48
2021/05/26 10:27:50;;;;;;;3.72;1.08;;;;;;;;;;5020607;28;20505;-48
2021/05/26 10:30:18;;;;;;;3.10;0.75;;;;;;;;;;5014792;28;20050;-48
2021/05/26 10:32:48;;;;;;;2.70;0.70;;;;;;;;;;5014933;28;20043;-49
2021/05/26 10:35:14;;;;;;;3.03;1.00;;;;;;;;;;5011595;28;20056;-49
2021/05/26 10:37:42;;;;;;;2.13;0.82;;;;;;;;;;5020997;28;20411;-48
2021/05/26 10:40:23;;;;;;;4.20;1.10;;;;;;;;;;5014411;28;20030;-51
2021/05/26 10:42:50;;;;;;;3.30;1.35;;;;;;;;;;5011623;28;20033;-48
2021/05/26 10:45:21;;;;;;;2.67;0.77;;;;;;;;;;5013000;28;20033;-48
2021/05/26 10:47:47;;;;;;;3.25;1.02;;;;;;;;;;5014089;28;20485;-49
2021/05/26 10:50:25;;;;;;;5.30;1.20;;;;;;;;;;5022362;28;20029;-50
2021/05/26 10:52:58;;;;;;;5.32;1.08;;;;;;;;;;5024005;28;20112;-48
2021/05/26 10:55:37;;;;;;;4.18;1.10;;;;;;;;;;5022633;28;20022;-50
2021/05/26 10:58:19;;;;;;;3.42;1.10;;;;;;;;;;5010594;28;20049;-48
2021/05/26 11:00:46;;;;;;;5.22;0.95;;;;;;;;;;5008906;28;20441;-48
2021/05/26 11:03:25;;;;;;;3.35;0.80;;;;;;;;;;5005917;28;20030;-48
2021/05/26 11:06:01;;;;;;;2.50;1.08;;;;;;;;;;5009658;28;20132;-50
2021/05/26 11:08:32;;;;;;;4.97;1.38;;;;;;;;;;5012161;28;20644;-49
2021/05/26 11:10:58;;;;;;;3.05;1.10;;;;;;;;;;5010629;28;20022;-49
2021/05/26 11:13:24;;;;;;;3.17;1.05;;;;;;;;;;5009611;28;20026;-48
2021/05/26 11:15:59;;;;;;;4.78;1.02;;;;;;;;;;5010412;28;20076;-48
2021/05/26 11:20:51;;;;;;;3.58;0.88;;;;;;;;;;5006531;28;20467;-48
2021/05/26 11:23:17;;;;;;;2.00;0.70;;;;;;;;;;5014762;28;20030;-48
2021/05/26 11:25:56;;;;;;;3.10;0.90;;;;;;;;;;5007239;28;20044;-48
2021/05/26 11:28:25;;;;;;;4.15;0.80;;;;;;;;;;5010650;28;20038;-48
2021/05/26 11:31:04;;;;;;;3.38;0.80;;;;;;;;;;5010611;28;21589;-48
2021/05/26 11:33:31;;;;;;;3.30;0.88;;;;;;;;;;5009409;28;20115;-50
2021/05/26 11:36:03;;;;;;;2.58;1.25;;;;;;;;;;5016249;28;20045;-49
2021/05/26 11:38:30;;;;;;;4.03;0.93;;;;;;;;;;5010343;28;20064;-48
2021/05/26 11:40:56;;;;;;;1.02;0.65;;;;;;;;;;5015423;28;20029;-47
2021/05/26 11:43:23;;;;;;;7.45;0.90;;;;;;;;;;5013488;28;20053;-48
2021/05/26 11:46:09;;;;;;;3.28;1.08;;;;;;;;;;5018593;28;20437;-48
2021/05/26 11:48:35;;;;;;;2.78;1.20;;;;;;;;;;5023115;28;20084;-49
2021/05/26 11:51:01;;;;;;;3.38;0.80;;;;;;;;;;5012820;28;20108;-48
2021/05/26 11:53:27;;;;;;;3.17;0.90;;;;;;;;;;5015745;28;20034;-48
2021/05/26 11:56:02;;;;;;;2.33;0.88;;;;;;;;;;5014604;28;20026;-50
2021/05/26 11:58:37;;;;;;;2.33;0.75;;;;;;;;;;5012913;28;20037;-49
2021/05/26 12:01:04;;;;;;;3.25;0.68;;;;;;;;;;5009605;28;20026;-51
2021/05/26 12:03:31;;;;;;;3.05;1.00;;;;;;;;;;5011821;28;20448;-50
2021/05/26 12:05:57;;;;;;;1.80;0.70;;;;;;;;;;5017241;28;20025;-49
2021/05/26 12:08:28;;;;;;;2.70;0.60;;;;;;;;;;5011235;28;20454;-48
2021/05/26 12:10:54;;;;;;;0.88;0.45;;;;;;;;;;5012155;28;20037;-50
2021/05/26 12:13:27;;;;;;;0.77;0.38;;;;;;;;;;5029118;28;20033;-49
2021/05/26 12:15:53;;;;;;;;;;;;;;;;;;5013246;28;20032;-48
2021/05/26 12:18:19;;;;;;;2.00;0.47;;;;;;;;;;5014732;28;19944;-50
2021/05/26 12:20:49;;;;;;;1.27;0.32;;;;;;;;;;5014691;28;20080;-49
2021/05/26 12:23:15;;;;;;;1.58;0.43;;;;;;;;;;5012777;28;20100;-49
2021/05/26 12:25:47;;;;;;;1.63;0.40;;;;;;;;;;5013864;28;20061;-48
2021/05/26 12:28:21;;;;;;;2.58;0.35;;;;;;;;;;5010247;28;20045;-48
2021/05/26 12:30:48;;;;;;;2.92;0.40;;;;;;;;;;5013871;28;20041;-51
2021/05/26 12:33:15;;;;;;;2.05;0.50;;;;;;;;;;5014209;28;20095;-49
2021/05/26 12:35:42;;;;;;;1.20;0.20;;;;;;;;;;5012003;28;20408;-49
2021/05/26 12:38:18;;;;;;;0.50;0.15;;;;;;;;;;5019620;28;20140;-51
2021/05/26 12:40:48;;;;;;;2.53;0.15;;;;;;;;;;5015099;28;20025;-50
2021/05/26 12:43:27;;;;;;;2.67;0.20;;;;;;;;;;5017668;28;20673;-48
2021/05/26 12:45:54;;;;;;;2.05;0.15;;;;;;;;;;5014267;28;20034;-52
2021/05/26 12:48:20;;;;;;;0.28;0.10;;;;;;;;;;5017316;28;20049;-48
2021/05/26 12:50:47;;;;;;;0.52;0.10;;;;;;;;;;5013963;28;20121;-48
2021/05/26 12:53:13;;;;;;;0.40;0.13;;;;;;;;;;5015548;28;20030;-48
2021/05/26 12:55:40;;;;;;;1.08;0.30;;;;;;;;;;5019551;28;20030;-50
2021/05/26 12:58:10;;;;;;;0.20;0.10;;;;;;;;;;5019504;28;20053;-52
2021/05/26 13:00:37;;;;;;;0.32;0.20;;;;;;;;;;5020668;28;20752;-50
2021/05/26 13:03:11;;;;;;;0.35;0.00;;;;;;;;;;5013896;28;20034;-52
2021/05/26 13:05:41;;;;;;;0.63;0.17;;;;;;;;;;5015447;28;20044;-48
2021/05/26 13:08:12;;;;;;;0.82;0.28;;;;;;;;;;5028099;28;20076;-51
2021/05/26 13:10:48;;;;;;;0.73;0.20;;;;;;;;;;5020053;28;20029;-48
2021/05/26 13:13:33;;;;;;;3.42;0.17;;;;;;;;;;5019536;28;20037;-49
2021/05/26 13:16:00;;;;;;;0.60;0.20;;;;;;;;;;5008932;28;20032;-50
2021/05/26 13:18:27;;;;;;;2.38;0.20;;;;;;;;;;5025449;28;20032;-49
2021/05/26 13:20:54;;;;;;;0.15;0.10;;;;;;;;;;5008275;28;20026;-48
2021/05/26 13:23:20;;;;;;;0.80;0.52;;;;;;;;;;5019239;28;20117;-48
2021/05/26 13:25:51;;;;;;;1.38;0.20;;;;;;;;;;5012671;28;20032;-48
2021/05/26 13:28:17;;;;;;;0.65;0.20;;;;;;;;;;5022131;28;20473;-49
2021/05/26 13:30:44;;;;;;;0.57;0.13;;;;;;;;;;5019539;28;20049;-50
2021/05/26 13:33:10;;;;;;;0.30;0.10;;;;;;;;;;5013525;28;20496;-49
2021/05/26 13:35:37;;;;;;;0.95;0.22;;;;;;;;;;5018491;28;20105;-49
2021/05/26 13:38:04;;;;;;;0.80;0.50;;;;;;;;;;5016334;28;20356;-49
2021/05/26 13:40:30;;;;;;;0.30;0.10;;;;;;;;;;5019971;28;20081;-50
2021/05/26 13:42:58;;;;;;;0.40;0.20;;;;;;;;;;5015862;28;20120;-51
2021/05/26 13:45:24;;;;;;;1.05;0.20;;;;;;;;;;5014822;28;20022;-52
2021/05/26 13:47:50;;;;;;;0.35;0.25;;;;;;;;;;5012490;28;20088;-50
2021/05/26 13:50:17;;;;;;;10.68;0.40;;;;;;;;;;5020452;28;20625;-50
2021/05/26 13:52:44;;;;;;;1.27;0.32;;;;;;;;;;5018789;28;20022;-50
2021/05/26 13:55:11;;;;;;;0.73;0.30;;;;;;;;;;5018682;28;20618;-50
2021/05/26 13:57:37;;;;;;;1.15;0.65;;;;;;;;;;5012736;28;20026;-50
2021/05/26 14:00:05;;;;;;;0.40;0.20;;;;;;;;;;5015478;28;20080;-52
2021/05/26 14:02:31;;;;;;;1.75;0.45;;;;;;;;;;5013973;28;20514;-50
2021/05/26 14:04:57;;;;;;;0.50;0.30;;;;;;;;;;5010155;28;20105;-51
2021/05/26 14:07:23;;;;;;;3.28;0.40;;;;;;;;;;5007747;28;20022;-52
2021/05/26 14:09:49;;;;;;;0.90;0.30;;;;;;;;;;5012418;28;20089;-52
2021/05/26 14:12:15;;;;;;;0.60;0.25;;;;;;;;;;5011779;28;20466;-52
2021/05/26 14:14:42;;;;;;;0.28;0.20;;;;;;;;;;5011536;28;20515;-48
2021/05/26 14:17:07;;;;;;;1.75;0.30;;;;;;;;;;5016690;28;20036;-50
2021/05/26 14:19:34;;;;;;;0.30;0.17;;;;;;;;;;5018920;28;20030;-50
2021/05/26 14:22:00;;;;;;;0.10;0.10;;;;;;;;;;5014970;28;20033;-51
2021/05/26 14:24:26;;;;;;;1.80;0.38;;;;;;;;;;5020158;28;20038;-49
2021/05/26 14:26:52;;;;;;;0.77;0.22;;;;;;;;;;5008035;28;20034;-49
2021/05/26 14:29:18;;;;;;;0.90;0.32;;;;;;;;;;5016641;28;20115;-49
2021/05/26 14:31:44;;;;;;;2.05;0.40;;;;;;;;;;5018500;28;20461;-50
2021/05/26 14:34:10;;;;;;;1.75;0.40;;;;;;;;;;5016219;28;20037;-49
2021/05/26 14:36:38;;;;;;;0.75;0.20;;;;;;;;;;5023298;28;20497;-51
2021/05/26 14:39:11;;;;;;;1.23;0.52;;;;;;;;;;5012520;28;20049;-53
2021/05/26 14:41:37;;;;;;;;;;;;;;;;;;5015198;28;20066;-50
2021/05/26 14:44:03;;;;;;;0.85;0.20;;;;;;;;;;5017164;28;19948;-52
2021/05/26 14:46:29;;;;;;;1.05;0.30;;;;;;;;;;5010374;28;20390;-49
2021/05/26 14:48:57;;;;;;;1.00;0.20;;;;;;;;;;5012055;28;20133;-50